Time,TemperatureF,DewpointF,PressureIn,WindDirection,WindDirectionDegrees,WindSpeedMPH,WindSpeedGustMPH,Humidity,HourlyPrecipIn,Conditions,Clouds,dailyrainin,SoftwareType,DateUTC
2015-08-28 00:08:00,71.5,67.0,30.16,East,86,2.0,-999.0,85,-99.99,,,0.00,weatherlink.com 1.10,2015-08-28 04:08:00,
2015-08-28 00:23:00,71.5,67.0,27.33,East,88,0.0,-999.0,84,-99.99,,,0.00,weatherlink.com 1.10,2015-08-28 04:23:00,
2015-08-28 00:38:00,71.3,67.0,27.33,East,79,4.0,-999.0,85,-99.99,,,0.00,weatherlink.com 1.10,2015-08-28 04:38:00,
2015-08-28 00:53:00,71.3,67.0,27.33,NE,51,0.0,-999.0,85,-99.99,,,0.00,weatherlink.com 1.10,2015-08-28 04:53:00,
2015-08-28 01:08:00,71.2,66.0,27.33,NE,49,1.0,-999.0,84,-99.99,,,0.00,weatherlink.com 1.10,2015-08-28 05:08:00,
2015-08-28 01:23:00,71.1,66.0,27.00,East,96,0.0,-999.0,84,-99.99,,,0.00,weatherlink.com 1.10,2015-08-28 05:23:00,
2015-08-28 01:38:00,70.9,66.0,27.00,East,96,4.0,-999.0,85,-99.99,,,0.00,weatherlink.com 1.10,2015-08-28 05:38:00,
2015-08-28 01:53:00,70.5,67.0,27.00,East,92,0.0,-999.0,87,-99.99,,,0.00,weatherlink.com 1.10,2015-08-28 05:53:00,
2015-08-28 02:08:00,70.1,66.0,27.00,East,89,0.0,-999.0,87,-99.99,,,0.00,weatherlink.com 1.10,2015-08-28 06:08:00,
2015-08-28 02:23:00,69.8,67.0,27.00,East,89,0.0,-999.0,89,-99.99,,,0.00,weatherlink.com 1.10,2015-08-28 06:23:00,
2015-08-28 02:38:00,69.4,66.0,27.00,East,85,0.0,-999.0,89,-99.99,,,0.00,weatherlink.com 1.10,2015-08-28 06:38:00,
2015-08-28 02:54:00,68.9,66.0,27.00,East,85,0.0,-999.0,90,-99.99,,,0.00,weatherlink.com 1.10,2015-08-28 06:54:00,
2015-08-28 03:09:00,68.5,66.0,27.00,East,85,0.0,-999.0,91,-99.99,,,0.00,weatherlink.com 1.10,2015-08-28 07:09:00,
2015-08-28 03:24:00,68.3,66.0,27.00,East,84,0.0,-999.0,91,-99.99,,,0.00,weatherlink.com 1.10,2015-08-28 07:24:00,
2015-08-28 03:39:00,68.1,65.0,31.18,East,84,0.0,-999.0,91,-99.99,,,0.00,weatherlink.com 1.10,2015-08-28 07:39:00,
2015-08-28 03:54:00,67.8,66.0,32.38,East,85,0.0,-999.0,92,-99.99,,,0.00,weatherlink.com 1.10,2015-08-28 07:54:00,
2015-08-28 04:09:00,67.6,65.0,32.38,East,85,0.0,-999.0,92,-99.99,,,0.00,weatherlink.com 1.10,2015-08-28 08:09:00,
2015-08-28 04:24:00,67.2,65.0,31.19,East,85,0.0,-999.0,92,-99.99,,,0.00,weatherlink.com 1.10,2015-08-28 08:24:00,
2015-08-28 04:39:00,66.7,65.0,32.39,East,85,0.0,-999.0,93,-99.99,,,0.00,weatherlink.com 1.10,2015-08-28 08:39:00,
2015-08-28 04:54:00,66.5,65.0,32.39,East,85,0.0,-999.0,93,-99.99,,,0.00,weatherlink.com 1.10,2015-08-28 08:54:00,
2015-08-28 05:09:00,66.2,65.0,32.39,East,84,0.0,-999.0,94,-99.99,,,0.00,weatherlink.com 1.10,2015-08-28 09:09:00,
2015-08-28 05:24:00,65.8,64.0,32.39,East,84,0.0,-999.0,94,-99.99,,,0.00,weatherlink.com 1.10,2015-08-28 09:24:00,
2015-08-28 05:39:00,65.6,64.0,32.40,East,85,0.0,-999.0,95,-99.99,,,0.00,weatherlink.com 1.10,2015-08-28 09:39:00,
2015-08-28 05:54:00,65.6,64.0,32.40,East,85,0.0,-999.0,95,-99.99,,,0.00,weatherlink.com 1.10,2015-08-28 09:54:00,
2015-08-28 06:09:00,65.3,64.0,32.40,East,85,0.0,-999.0,95,-99.99,,,0.00,weatherlink.com 1.10,2015-08-28 10:09:00,
2015-08-28 06:24:00,64.9,64.0,32.41,East,85,0.0,-999.0,95,-99.99,,,0.00,weatherlink.com 1.10,2015-08-28 10:24:00,
2015-08-28 06:39:00,64.7,63.0,32.41,East,84,0.0,-999.0,95,-99.99,,,0.00,weatherlink.com 1.10,2015-08-28 10:39:00,
2015-08-28 06:54:00,64.5,63.0,32.42,East,84,0.0,-999.0,95,-99.99,,,0.00,weatherlink.com 1.10,2015-08-28 10:54:00,
2015-08-28 07:09:00,64.4,63.0,32.42,East,85,0.0,-999.0,96,-99.99,,,0.00,weatherlink.com 1.10,2015-08-28 11:09:00,
2015-08-28 07:24:00,64.5,63.0,32.45,East,85,0.0,-999.0,95,-99.99,,,0.00,weatherlink.com 1.10,2015-08-28 11:24:00,
2015-08-28 07:39:00,65.3,64.0,32.44,East,85,0.0,-999.0,96,-99.99,,,0.00,weatherlink.com 1.10,2015-08-28 11:39:00,
2015-08-28 07:54:00,67.4,65.0,32.45,East,84,0.0,-999.0,92,-99.99,,,0.00,weatherlink.com 1.10,2015-08-28 11:54:00,
2015-08-28 08:09:00,69.6,66.0,32.46,NE,34,1.0,-999.0,88,-99.99,,,0.00,weatherlink.com 1.10,2015-08-28 12:09:00,
2015-08-28 08:24:00,71.7,66.0,32.45,ENE,61,3.0,-999.0,83,-99.99,,,0.00,weatherlink.com 1.10,2015-08-28 12:24:00,
2015-08-28 08:39:00,73.2,67.0,32.45,ENE,58,0.0,-999.0,82,-99.99,,,0.00,weatherlink.com 1.10,2015-08-28 12:39:00,
2015-08-28 08:54:00,74.1,67.0,32.45,East,94,3.0,-999.0,78,-99.99,,,0.00,weatherlink.com 1.10,2015-08-28 12:54:00,
2015-08-28 09:09:00,74.7,67.0,32.45,North,11,3.0,-999.0,78,-99.99,,,0.00,weatherlink.com 1.10,2015-08-28 13:09:00,
2015-08-28 09:24:00,75.8,67.0,32.46,NE,37,2.0,-999.0,74,-99.99,,,0.00,weatherlink.com 1.10,2015-08-28 13:24:00,
2015-08-28 09:39:00,77.0,67.0,32.46,ESE,108,3.0,-999.0,72,-99.99,,,0.00,weatherlink.com 1.10,2015-08-28 13:39:00,
2015-08-28 09:54:00,78.4,67.0,32.47,NNE,19,5.0,-999.0,69,-99.99,,,0.00,weatherlink.com 1.10,2015-08-28 13:54:00,
2015-08-28 10:09:00,78.5,68.0,32.47,NNE,22,4.0,-999.0,69,-99.99,,,0.00,weatherlink.com 1.10,2015-08-28 14:09:00,
2015-08-28 10:24:00,78.8,67.0,32.48,East,96,5.0,-999.0,68,-99.99,,,0.00,weatherlink.com 1.10,2015-08-28 14:24:00,
2015-08-28 10:39:00,79.0,68.0,32.48,NE,48,3.0,-999.0,69,-99.99,,,0.00,weatherlink.com 1.10,2015-08-28 14:39:00,
2015-08-28 10:54:00,79.8,67.0,32.49,NE,48,4.0,-999.0,66,-99.99,,,0.00,weatherlink.com 1.10,2015-08-28 14:54:00,
2015-08-28 11:09:00,80.6,68.0,32.49,East,87,4.0,-999.0,66,-99.99,,,0.00,weatherlink.com 1.10,2015-08-28 15:09:00,
2015-08-28 11:25:00,81.7,68.0,32.49,NE,42,6.0,-999.0,64,-99.99,,,0.00,weatherlink.com 1.10,2015-08-28 15:25:00,